NKS1540 KFLL-KLGA
Flight info
| Callsign | NKS1540 |
|---|---|
| Flight time | N/A |
| Altitude | 35000 |
| Route | HROCK2 KPASA Q99 POLYY DADDS Q87 HURTS PROUD2 |
| Aircraft | A320/M-SDE3FGHIRWXYZ/LB1 |
Departure
| Time | 2026-05-06 01:25 |
|---|---|
| Airport | Fort Lauderdale Hollywood International Airport (KFLL) |
Arrival
| Time | N/A |
|---|---|
| Airport | LaGuardia Airport (KLGA) |
| Time | Latitude | Longitude | Altitude | Speed | Heading |
|---|---|---|---|---|---|
| 2026-05-06 00:41 | 26.06961 | -80.14150 | 9 ft | 0 kts | 281° |
| 2026-05-06 01:02 | 26.06961 | -80.14147 | 9 ft | 2 kts | 281° |
| 2026-05-06 01:03 | 26.06958 | -80.14131 | 9 ft | 2 kts | 281° |
| 2026-05-06 01:03 | 26.06953 | -80.14115 | 9 ft | 2 kts | 300° |
| 2026-05-06 01:03 | 26.06945 | -80.14102 | 9 ft | 2 kts | 315° |
| 2026-05-06 01:03 | 26.06933 | -80.14092 | 9 ft | 2 kts | 332° |
| 2026-05-06 01:04 | 26.06919 | -80.14085 | 9 ft | 2 kts | 348° |
| 2026-05-06 01:04 | 26.06904 | -80.14085 | 9 ft | 2 kts | 5° |
| 2026-05-06 01:04 | 26.06889 | -80.14085 | 9 ft | 2 kts | 0° |
| 2026-05-06 01:04 | 26.06874 | -80.14086 | 9 ft | 2 kts | 2° |
| 2026-05-06 01:05 | 26.06858 | -80.14086 | 9 ft | 2 kts | 2° |
| 2026-05-06 01:05 | 26.06844 | -80.14088 | 9 ft | 2 kts | 7° |
| 2026-05-06 01:05 | 26.06829 | -80.14091 | 9 ft | 2 kts | 11° |
| 2026-05-06 01:05 | 26.06814 | -80.14095 | 9 ft | 2 kts | 35° |
| 2026-05-06 01:06 | 26.06804 | -80.14108 | 9 ft | 2 kts | 69° |
| 2026-05-06 01:06 | 26.06802 | -80.14124 | 9 ft | 2 kts | 103° |
| 2026-05-06 01:06 | 26.06809 | -80.14139 | 9 ft | 2 kts | 132° |
| 2026-05-06 01:06 | 26.06818 | -80.14152 | 9 ft | 2 kts | 123° |
| 2026-05-06 01:07 | 26.06826 | -80.14166 | 9 ft | 1 kts | 113° |
| 2026-05-06 01:07 | 26.06827 | -80.14181 | 9 ft | 2 kts | 67° |
| 2026-05-06 01:07 | 26.06817 | -80.14195 | 9 ft | 2 kts | 30° |
| 2026-05-06 01:07 | 26.06804 | -80.14199 | 9 ft | 2 kts | 357° |
| 2026-05-06 01:08 | 26.06789 | -80.14195 | 9 ft | 2 kts | 322° |
| 2026-05-06 01:08 | 26.06780 | -80.14181 | 9 ft | 2 kts | 288° |
| 2026-05-06 01:08 | 26.06779 | -80.14165 | 9 ft | 2 kts | 253° |
| 2026-05-06 01:08 | 26.06784 | -80.14153 | 9 ft | 0 kts | 243° |
| 2026-05-06 01:09 | 26.06789 | -80.14140 | 9 ft | 2 kts | 241° |
| 2026-05-06 01:09 | 26.06797 | -80.14126 | 9 ft | 2 kts | 233° |
| 2026-05-06 01:09 | 26.06807 | -80.14114 | 9 ft | 2 kts | 225° |
| 2026-05-06 01:09 | 26.06818 | -80.14102 | 9 ft | 2 kts | 217° |
| 2026-05-06 01:10 | 26.06831 | -80.14093 | 9 ft | 2 kts | 209° |
| 2026-05-06 01:10 | 26.06837 | -80.14089 | 9 ft | 0 kts | 205° |
| 2026-05-06 01:12 | 26.06826 | -80.14097 | 9 ft | 2 kts | 221° |
| 2026-05-06 01:12 | 26.06812 | -80.14125 | 9 ft | 6 kts | 255° |
| 2026-05-06 01:13 | 26.06814 | -80.14186 | 9 ft | 9 kts | 272° |
| 2026-05-06 01:13 | 26.06815 | -80.14262 | 9 ft | 10 kts | 270° |
| 2026-05-06 01:13 | 26.06815 | -80.14346 | 9 ft | 11 kts | 270° |
| 2026-05-06 01:13 | 26.06813 | -80.14439 | 9 ft | 12 kts | 264° |
| 2026-05-06 01:14 | 26.06764 | -80.14631 | 9 ft | 13 kts | 268° |
| 2026-05-06 01:14 | 26.06764 | -80.14737 | 9 ft | 14 kts | 270° |
| 2026-05-06 01:14 | 26.06766 | -80.14850 | 9 ft | 15 kts | 271° |
| 2026-05-06 01:15 | 26.06767 | -80.14968 | 9 ft | 15 kts | 270° |
| 2026-05-06 01:15 | 26.06767 | -80.15090 | 9 ft | 16 kts | 271° |
| 2026-05-06 01:15 | 26.06768 | -80.15192 | 9 ft | 11 kts | 271° |
| 2026-05-06 01:15 | 26.06771 | -80.15279 | 9 ft | 11 kts | 287° |
| 2026-05-06 01:16 | 26.06842 | -80.15305 | 9 ft | 12 kts | 1° |
| 2026-05-06 01:16 | 26.06928 | -80.15303 | 9 ft | 12 kts | 0° |
| 2026-05-06 01:16 | 26.07020 | -80.15302 | 9 ft | 13 kts | 1° |
| 2026-05-06 01:16 | 26.07114 | -80.15301 | 9 ft | 13 kts | 0° |
| 2026-05-06 01:17 | 26.07212 | -80.15301 | 9 ft | 14 kts | 0° |
| 2026-05-06 01:17 | 26.07314 | -80.15300 | 9 ft | 14 kts | 360° |
| 2026-05-06 01:17 | 26.07416 | -80.15300 | 9 ft | 15 kts | 360° |
| 2026-05-06 01:17 | 26.07483 | -80.15321 | 9 ft | 9 kts | 305° |
| 2026-05-06 01:18 | 26.07491 | -80.15398 | 9 ft | 10 kts | 270° |
| 2026-05-06 01:18 | 26.07492 | -80.15485 | 9 ft | 11 kts | 270° |
| 2026-05-06 01:18 | 26.07492 | -80.15582 | 9 ft | 12 kts | 270° |
| 2026-05-06 01:18 | 26.07493 | -80.15685 | 9 ft | 13 kts | 270° |
| 2026-05-06 01:19 | 26.07498 | -80.15777 | 9 ft | 9 kts | 304° |
| 2026-05-06 01:19 | 26.07547 | -80.15836 | 9 ft | 10 kts | 314° |
| 2026-05-06 01:19 | 26.07567 | -80.15913 | 9 ft | 11 kts | 270° |
| 2026-05-06 01:19 | 26.07568 | -80.16006 | 9 ft | 12 kts | 270° |
| 2026-05-06 01:20 | 26.07568 | -80.16106 | 9 ft | 13 kts | 271° |
| 2026-05-06 01:20 | 26.07569 | -80.16213 | 9 ft | 14 kts | 269° |
| 2026-05-06 01:20 | 26.07569 | -80.16322 | 9 ft | 14 kts | 270° |
| 2026-05-06 01:20 | 26.07570 | -80.16438 | 9 ft | 15 kts | 270° |
| 2026-05-06 01:21 | 26.07570 | -80.16560 | 9 ft | 13 kts | 271° |
| 2026-05-06 01:21 | 26.07586 | -80.16635 | 9 ft | 9 kts | 318° |
| 2026-05-06 01:21 | 26.07656 | -80.16644 | 9 ft | 9 kts | 359° |
| 2026-05-06 01:21 | 26.07692 | -80.16633 | 9 ft | 5 kts | 70° |
| 2026-05-06 01:22 | 26.07694 | -80.16612 | 9 ft | 0 kts | 88° |
| 2026-05-06 01:24 | 26.07695 | -80.16588 | 9 ft | 20 kts | 89° |
| 2026-05-06 01:24 | 26.07693 | -80.16158 | 10 ft | 89 kts | 90° |
| 2026-05-06 01:24 | 26.07687 | -80.15242 | 10 ft | 146 kts | 90° |
| 2026-05-06 01:24 | 26.07673 | -80.13980 | 325 ft | 166 kts | 88° |
| 2026-05-06 01:25 | 26.07658 | -80.12746 | 1030 ft | 160 kts | 88° |
| 2026-05-06 01:25 | 26.07631 | -80.11523 | 1506 ft | 165 kts | 88° |
| 2026-05-06 01:25 | 26.07646 | -80.10180 | 1791 ft | 181 kts | 77° |
| 2026-05-06 01:25 | 26.08068 | -80.08831 | 2119 ft | 196 kts | 65° |
| 2026-05-06 01:26 | 26.08812 | -80.07469 | 2364 ft | 219 kts | 43° |
| 2026-05-06 01:26 | 26.10172 | -80.06566 | 2760 ft | 237 kts | 20° |
| 2026-05-06 01:26 | 26.11801 | -80.05965 | 3201 ft | 254 kts | 19° |
| 2026-05-06 01:26 | 26.13502 | -80.05318 | 3846 ft | 262 kts | 19° |
| 2026-05-06 01:27 | 26.15263 | -80.04863 | 4554 ft | 267 kts | 2° |
| 2026-05-06 01:27 | 26.17104 | -80.05148 | 5288 ft | 270 kts | 342° |
| 2026-05-06 01:27 | 26.18882 | -80.05832 | 6058 ft | 272 kts | 339° |
| 2026-05-06 01:27 | 26.20650 | -80.06553 | 6807 ft | 274 kts | 337° |
| 2026-05-06 01:28 | 26.22247 | -80.07651 | 7511 ft | 275 kts | 312° |
| 2026-05-06 01:28 | 26.23248 | -80.09450 | 8243 ft | 275 kts | 291° |
| 2026-05-06 01:28 | 26.23922 | -80.11434 | 8941 ft | 276 kts | 291° |
| 2026-05-06 01:28 | 26.24604 | -80.13429 | 9593 ft | 278 kts | 291° |
| 2026-05-06 01:29 | 26.25296 | -80.15448 | 10224 ft | 280 kts | 290° |
| 2026-05-06 01:29 | 26.25903 | -80.17542 | 10578 ft | 293 kts | 287° |
| 2026-05-06 01:29 | 26.26495 | -80.19762 | 10929 ft | 304 kts | 287° |
| 2026-05-06 01:29 | 26.27095 | -80.22030 | 11483 ft | 306 kts | 287° |
| 2026-05-06 01:30 | 26.27696 | -80.24301 | 12027 ft | 309 kts | 288° |
| 2026-05-06 01:30 | 26.28300 | -80.26575 | 12537 ft | 311 kts | 288° |
| 2026-05-06 01:30 | 26.28922 | -80.28917 | 13040 ft | 314 kts | 288° |
| 2026-05-06 01:30 | 26.29538 | -80.31234 | 13547 ft | 316 kts | 288° |
| 2026-05-06 01:31 | 26.30159 | -80.33573 | 14058 ft | 318 kts | 288° |
| 2026-05-06 01:31 | 26.30782 | -80.35922 | 14570 ft | 319 kts | 288° |
| 2026-05-06 01:31 | 26.31415 | -80.38309 | 15072 ft | 321 kts | 288° |
| 2026-05-06 01:31 | 26.32044 | -80.40686 | 15569 ft | 322 kts | 288° |
| 2026-05-06 01:32 | 26.32681 | -80.43091 | 16051 ft | 324 kts | 288° |
| 2026-05-06 01:32 | 26.33313 | -80.45481 | 16499 ft | 326 kts | 288° |
| 2026-05-06 01:32 | 26.33957 | -80.47921 | 16950 ft | 327 kts | 288° |
| 2026-05-06 01:32 | 26.34597 | -80.50341 | 17383 ft | 329 kts | 288° |
| 2026-05-06 01:33 | 26.35242 | -80.52787 | 17816 ft | 330 kts | 288° |
| 2026-05-06 01:33 | 26.35885 | -80.55230 | 18273 ft | 331 kts | 288° |
| 2026-05-06 01:33 | 26.36532 | -80.57684 | 18722 ft | 331 kts | 288° |
| 2026-05-06 01:33 | 26.37180 | -80.60146 | 19120 ft | 332 kts | 288° |
| 2026-05-06 01:34 | 26.37830 | -80.62622 | 19511 ft | 333 kts | 288° |
| 2026-05-06 01:34 | 26.38473 | -80.65069 | 19908 ft | 334 kts | 288° |
| 2026-05-06 01:34 | 26.39133 | -80.67582 | 20298 ft | 335 kts | 288° |
| 2026-05-06 01:34 | 26.39850 | -80.70021 | 20658 ft | 335 kts | 294° |
| 2026-05-06 01:35 | 26.40915 | -80.72325 | 21040 ft | 334 kts | 303° |
| 2026-05-06 01:35 | 26.42302 | -80.74399 | 21392 ft | 335 kts | 311° |
| 2026-05-06 01:35 | 26.43873 | -80.76335 | 21753 ft | 336 kts | 312° |
| 2026-05-06 01:35 | 26.45443 | -80.78229 | 22070 ft | 337 kts | 313° |
| 2026-05-06 01:36 | 26.47043 | -80.80156 | 22405 ft | 338 kts | 313° |
| 2026-05-06 01:36 | 26.48633 | -80.82076 | 22753 ft | 339 kts | 313° |
| 2026-05-06 01:36 | 26.50274 | -80.83967 | 23052 ft | 340 kts | 315° |
| 2026-05-06 01:36 | 26.52028 | -80.85768 | 23369 ft | 342 kts | 318° |
| 2026-05-06 01:37 | 26.53868 | -80.87474 | 23685 ft | 344 kts | 320° |
| 2026-05-06 01:37 | 26.55730 | -80.89170 | 23886 ft | 349 kts | 320° |
| 2026-05-06 01:37 | 26.57617 | -80.90885 | 24152 ft | 352 kts | 320° |
| 2026-05-06 01:37 | 26.59516 | -80.92609 | 24477 ft | 352 kts | 320° |
| 2026-05-06 01:38 | 26.61406 | -80.94330 | 24805 ft | 353 kts | 320° |
| 2026-05-06 01:38 | 26.63323 | -80.96074 | 25111 ft | 354 kts | 320° |
| 2026-05-06 01:38 | 26.65238 | -80.97814 | 25417 ft | 355 kts | 320° |
| 2026-05-06 01:38 | 26.67167 | -80.99570 | 25756 ft | 356 kts | 320° |
| 2026-05-06 01:39 | 26.69062 | -81.01297 | 26071 ft | 357 kts | 320° |
| 2026-05-06 01:39 | 26.71007 | -81.03069 | 26372 ft | 358 kts | 320° |
| 2026-05-06 01:39 | 26.72920 | -81.04813 | 26653 ft | 360 kts | 320° |
| 2026-05-06 01:39 | 26.74867 | -81.06587 | 26959 ft | 360 kts | 320° |
| 2026-05-06 01:40 | 26.76798 | -81.08351 | 27286 ft | 361 kts | 320° |
| 2026-05-06 01:40 | 26.78762 | -81.10143 | 27582 ft | 362 kts | 320° |
| 2026-05-06 01:40 | 26.80705 | -81.11917 | 27860 ft | 363 kts | 320° |
| 2026-05-06 01:40 | 26.82671 | -81.13715 | 28155 ft | 364 kts | 320° |
| 2026-05-06 01:41 | 26.84623 | -81.15497 | 28440 ft | 365 kts | 320° |
| 2026-05-06 01:41 | 26.86594 | -81.17301 | 28702 ft | 367 kts | 320° |
| 2026-05-06 01:41 | 26.88583 | -81.19119 | 28989 ft | 368 kts | 320° |
| 2026-05-06 01:41 | 26.90565 | -81.20933 | 29254 ft | 369 kts | 320° |
| 2026-05-06 01:42 | 26.92555 | -81.22755 | 29536 ft | 369 kts | 320° |
| 2026-05-06 01:42 | 26.94537 | -81.24575 | 29813 ft | 370 kts | 320° |
| 2026-05-06 01:42 | 26.96535 | -81.26405 | 30070 ft | 371 kts | 320° |
| 2026-05-06 01:42 | 26.98529 | -81.28236 | 30318 ft | 372 kts | 320° |
| 2026-05-06 01:43 | 27.00520 | -81.30061 | 30558 ft | 372 kts | 320° |
| 2026-05-06 01:43 | 27.02547 | -81.31857 | 30776 ft | 374 kts | 322° |
| 2026-05-06 01:43 | 27.04680 | -81.33563 | 30989 ft | 375 kts | 324° |
| 2026-05-06 01:43 | 27.06893 | -81.35150 | 31212 ft | 377 kts | 327° |
| 2026-05-06 01:44 | 27.09144 | -81.36619 | 31439 ft | 377 kts | 328° |
| 2026-05-06 01:44 | 27.11414 | -81.38070 | 31668 ft | 378 kts | 328° |
| 2026-05-06 01:44 | 27.13699 | -81.39526 | 31909 ft | 378 kts | 328° |
| 2026-05-06 01:44 | 27.15999 | -81.40989 | 32126 ft | 379 kts | 328° |
| 2026-05-06 01:45 | 27.18288 | -81.42447 | 32337 ft | 380 kts | 328° |
| 2026-05-06 01:45 | 27.20586 | -81.43908 | 32531 ft | 381 kts | 328° |
| 2026-05-06 01:45 | 27.22912 | -81.45387 | 32724 ft | 382 kts | 328° |
| 2026-05-06 01:45 | 27.25224 | -81.46861 | 32907 ft | 382 kts | 328° |
| 2026-05-06 01:46 | 27.27538 | -81.48334 | 33108 ft | 383 kts | 328° |
| 2026-05-06 01:46 | 27.29845 | -81.49802 | 33319 ft | 383 kts | 328° |
| 2026-05-06 01:46 | 27.32176 | -81.51241 | 33544 ft | 383 kts | 330° |
| 2026-05-06 01:46 | 27.34588 | -81.52570 | 33741 ft | 384 kts | 333° |
| 2026-05-06 01:47 | 27.37043 | -81.53765 | 33908 ft | 386 kts | 334° |
| 2026-05-06 01:47 | 27.39510 | -81.54898 | 34105 ft | 385 kts | 334° |
| 2026-05-06 01:47 | 27.42002 | -81.56039 | 34309 ft | 385 kts | 334° |
| 2026-05-06 01:47 | 27.44490 | -81.57174 | 34509 ft | 384 kts | 334° |